Time;durP1;ratioP1;P1;durP2;ratioP2;P2;SDS_P1;SDS_P2;PMS_P1;PMS_P2;Temp;Humidity;BMP_temperature;BMP_pressure;BME280_temperature;BME280_humidity;BME280_pressure;Samples;Min_cycle;Max_cycle;Signal;HPM_P1;HPM_P2
2020/12/12 05:00:52;;;;;;;42.10;20.80;;;2.90;99.90;;;;;;5752759;23;20231;-70
2020/12/12 05:03:20;;;;;;;54.60;24.23;;;2.90;99.90;;;;;;4971152;28;20259;-70
2020/12/12 05:05:47;;;;;;;44.53;22.30;;;2.90;99.90;;;;;;4972951;28;20263;-70
2020/12/12 05:08:14;;;;;;;41.88;20.10;;;2.90;99.90;;;;;;4977272;28;20237;-70
2020/12/12 05:10:42;;;;;;;39.67;18.20;;;2.90;99.90;;;;;;4976153;28;20283;-69
2020/12/12 05:13:19;;;;;;;49.42;22.98;;;2.90;99.90;;;;;;4976989;28;20204;-69
2020/12/12 05:15:45;;;;;;;43.08;22.10;;;2.90;99.90;;;;;;4975847;28;20223;-69
2020/12/12 05:18:13;;;;;;;45.85;20.13;;;3.00;99.90;;;;;;4976597;28;20278;-69
2020/12/12 05:20:39;;;;;;;44.22;21.60;;;3.00;99.90;;;;;;4976044;28;20224;-69
2020/12/12 05:23:13;;;;;;;52.60;24.17;;;3.00;99.90;;;;;;4976591;28;20212;-69
2020/12/12 05:25:40;;;;;;;43.65;21.08;;;2.90;99.90;;;;;;4976380;28;20209;-69
2020/12/12 05:28:07;;;;;;;53.50;23.17;;;2.90;99.90;;;;;;4976336;28;20260;-69
2020/12/12 05:30:34;;;;;;;38.03;17.92;;;2.90;99.90;;;;;;4975802;28;20736;-69
2020/12/12 05:33:00;;;;;;;43.33;19.23;;;2.90;99.90;;;;;;4975866;28;20209;-69
2020/12/12 05:35:27;;;;;;;48.50;22.70;;;2.90;99.90;;;;;;4975695;28;20259;-69
2020/12/12 05:37:54;;;;;;;51.80;24.88;;;2.90;99.90;;;;;;4975953;28;20618;-70
2020/12/12 05:40:20;;;;;;;47.00;23.70;;;2.90;99.90;;;;;;4975730;28;20212;-69
2020/12/12 05:42:47;;;;;;;48.50;22.75;;;2.90;99.90;;;;;;4976431;28;20274;-69
2020/12/12 05:45:14;;;;;;;47.90;23.90;;;2.90;99.90;;;;;;4976347;28;20291;-72
2020/12/12 05:47:40;;;;;;;46.80;20.70;;;2.90;99.90;;;;;;4975476;28;20304;-72
2020/12/12 05:50:06;;;;;;;48.22;22.13;;;3.00;99.90;;;;;;4975568;28;20695;-71
2020/12/12 05:52:34;;;;;;;56.95;23.17;;;2.90;99.90;;;;;;4975753;28;20208;-72
2020/12/12 05:55:01;;;;;;;53.67;21.65;;;2.90;99.90;;;;;;4977327;28;20723;-72
2020/12/12 05:57:27;;;;;;;51.45;24.45;;;2.90;99.90;;;;;;4977731;28;20228;-72
2020/12/12 05:59:54;;;;;;;42.75;21.52;;;2.90;99.90;;;;;;4976782;28;20719;-71
2020/12/12 06:02:25;;;;;;;32.45;17.08;;;2.90;99.90;;;;;;4976905;28;20240;-72
2020/12/12 06:04:52;;;;;;;45.25;20.58;;;2.90;99.90;;;;;;4976936;28;20255;-72
2020/12/12 06:07:28;;;;;;;41.88;21.23;;;2.90;99.90;;;;;;4974399;28;20224;-72
2020/12/12 06:09:59;;;;;;;42.15;20.48;;;2.90;99.90;;;;;;4976642;28;20207;-71
2020/12/12 06:12:25;;;;;;;49.85;21.50;;;2.90;99.90;;;;;;4977625;28;20248;-72
2020/12/12 06:14:57;;;;;;;52.28;25.70;;;2.90;99.90;;;;;;4977245;28;20615;-71
2020/12/12 06:17:36;;;;;;;43.80;23.23;;;2.90;99.90;;;;;;4977297;28;20742;-71
2020/12/12 06:20:04;;;;;;;51.65;24.60;;;2.90;99.90;;;;;;4976408;28;20287;-72
2020/12/12 06:22:32;;;;;;;47.38;21.55;;;2.90;99.90;;;;;;4976827;28;20208;-72
2020/12/12 06:25:00;;;;;;;50.55;22.83;;;2.90;99.90;;;;;;4976804;28;20209;-71
2020/12/12 06:27:32;;;;;;;42.25;22.65;;;2.90;99.90;;;;;;4976233;28;20220;-72
2020/12/12 06:30:00;;;;;;;47.17;24.10;;;2.90;99.90;;;;;;4976630;28;20204;-72
2020/12/12 06:32:26;;;;;;;45.08;22.33;;;3.00;99.90;;;;;;4976125;28;20224;-71
2020/12/12 06:34:53;;;;;;;46.08;23.80;;;3.00;99.90;;;;;;4976721;28;20209;-72
2020/12/12 06:37:27;;;;;;;52.80;24.60;;;3.00;99.90;;;;;;4976151;28;20610;-71
2020/12/12 06:39:53;;;;;;;50.53;20.73;;;3.00;99.90;;;;;;4976267;28;20287;-71
2020/12/12 06:42:40;;;;;;;51.63;24.98;;;3.00;99.90;;;;;;4976181;28;20244;-71
2020/12/12 06:45:29;;;;;;;44.38;22.75;;;3.00;99.90;;;;;;4976200;28;20683;-71
2020/12/12 06:47:56;;;;;;;48.83;21.75;;;3.00;99.90;;;;;;4975116;28;20243;-71
2020/12/12 06:50:24;;;;;;;50.45;23.58;;;3.00;99.90;;;;;;4975803;28;20267;-72
2020/12/12 06:52:51;;;;;;;44.63;23.60;;;3.00;99.90;;;;;;4977906;28;20205;-71
2020/12/12 06:55:19;;;;;;;43.63;21.83;;;3.00;99.90;;;;;;4977066;28;20212;-71
2020/12/12 06:57:47;;;;;;;46.33;22.23;;;3.00;99.90;;;;;;4977924;28;20260;-71
2020/12/12 07:00:21;;;;;;;42.95;21.55;;;3.00;99.90;;;;;;4977032;28;20209;-71
2020/12/12 07:02:55;;;;;;;46.35;23.02;;;3.00;99.90;;;;;;4976475;28;20213;-72
2020/12/12 07:05:22;;;;;;;42.13;18.55;;;3.00;99.90;;;;;;4977914;28;20251;-72
2020/12/12 07:07:48;;;;;;;40.67;21.83;;;3.00;99.90;;;;;;4978086;28;20283;-71
2020/12/12 07:10:14;;;;;;;40.92;21.75;;;3.00;99.90;;;;;;4974148;28;20704;-71
2020/12/12 07:12:41;;;;;;;49.45;23.20;;;3.00;99.90;;;;;;4975018;28;20255;-72
2020/12/12 07:15:08;;;;;;;46.10;23.15;;;3.00;99.90;;;;;;4975195;28;20201;-71
2020/12/12 07:17:34;;;;;;;39.17;21.35;;;3.10;99.90;;;;;;4974746;28;20256;-71
2020/12/12 07:20:01;;;;;;;53.97;21.02;;;3.10;99.90;;;;;;4973787;28;20201;-71
2020/12/12 07:22:28;;;;;;;41.22;21.55;;;3.10;99.90;;;;;;4974069;28;20352;-71
2020/12/12 07:24:56;;;;;;;29.70;16.52;;;3.10;99.90;;;;;;4973309;28;20228;-70
2020/12/12 07:27:22;;;;;;;43.25;21.95;;;3.10;99.90;;;;;;4974308;28;20217;-70
2020/12/12 07:29:48;;;;;;;47.20;22.65;;;3.10;99.90;;;;;;4973874;28;20204;-71
2020/12/12 07:32:15;;;;;;;40.60;21.45;;;3.10;99.90;;;;;;4974063;28;20220;-71
2020/12/12 07:34:41;;;;;;;38.10;20.58;;;3.10;99.90;;;;;;4974130;28;20212;-72
2020/12/12 07:37:09;;;;;;;47.42;22.83;;;3.10;99.90;;;;;;4975133;28;20208;-73
2020/12/12 07:39:37;;;;;;;41.75;20.80;;;3.10;99.90;;;;;;4974678;28;20259;-73
2020/12/12 07:42:05;;;;;;;43.40;22.77;;;3.10;99.90;;;;;;4975667;28;20275;-73
2020/12/12 07:44:32;;;;;;;39.85;21.20;;;3.20;99.90;;;;;;4976024;28;20263;-72
2020/12/12 07:47:01;;;;;;;40.95;21.52;;;3.10;99.90;;;;;;4975645;28;20345;-73
2020/12/12 07:49:29;;;;;;;49.60;21.20;;;3.10;99.90;;;;;;4974796;28;20205;-73
2020/12/12 07:51:59;;;;;;;45.80;21.55;;;3.10;99.90;;;;;;4975737;28;20632;-71
2020/12/12 07:54:32;;;;;;;30.02;17.85;;;3.20;99.90;;;;;;4975028;28;20209;-71
2020/12/12 07:56:58;;;;;;;38.92;18.10;;;3.10;99.90;;;;;;4973898;28;20208;-70
2020/12/12 07:59:24;;;;;;;42.42;21.27;;;3.20;99.90;;;;;;4969128;28;20297;-71
2020/12/12 08:01:51;;;;;;;35.90;21.88;;;3.20;99.90;;;;;;4972133;28;20245;-71
2020/12/12 08:04:23;;;;;;;36.70;20.05;;;3.20;99.90;;;;;;4973414;28;20659;-71
2020/12/12 08:06:51;;;;;;;41.70;21.92;;;3.20;99.90;;;;;;4974514;28;20235;-71
2020/12/12 08:09:19;;;;;;;35.75;20.27;;;3.20;99.90;;;;;;4973253;28;20271;-71
2020/12/12 08:11:45;;;;;;;44.58;23.33;;;3.20;99.90;;;;;;4973301;28;20225;-71
2020/12/12 08:14:11;;;;;;;37.13;20.23;;;3.20;99.90;;;;;;4973148;28;20209;-71
2020/12/12 08:16:42;;;;;;;41.90;21.08;;;3.20;99.90;;;;;;4974008;28;20204;-69
2020/12/12 08:19:09;;;;;;;41.40;19.92;;;3.30;99.90;;;;;;4972661;28;20204;-70
2020/12/12 08:21:36;;;;;;;50.05;23.67;;;3.30;99.90;;;;;;4973516;28;20296;-69
2020/12/12 08:24:06;;;;;;;44.40;21.40;;;3.30;99.90;;;;;;4973124;28;20675;-70
2020/12/12 08:26:34;;;;;;;44.20;23.13;;;3.30;99.90;;;;;;4972969;28;20220;-70
2020/12/12 08:29:02;;;;;;;33.65;19.13;;;3.30;99.90;;;;;;4972842;28;20268;-70
2020/12/12 08:31:36;;;;;;;42.83;21.25;;;3.30;99.90;;;;;;4973296;28;20553;-69
2020/12/12 08:34:02;;;;;;;38.40;21.20;;;3.30;99.90;;;;;;4973557;28;20224;-69
2020/12/12 08:36:30;;;;;;;42.42;20.48;;;3.30;99.90;;;;;;4973202;28;20204;-71
2020/12/12 08:38:58;;;;;;;46.58;24.00;;;3.30;99.90;;;;;;4975010;28;20259;-72
2020/12/12 08:41:29;;;;;;;41.42;21.85;;;3.40;99.90;;;;;;4974309;28;20255;-71
2020/12/12 08:43:56;;;;;;;35.15;19.25;;;3.30;99.90;;;;;;4975779;28;20222;-71
2020/12/12 08:46:22;;;;;;;37.15;22.17;;;3.40;99.90;;;;;;4976420;28;20197;-71
2020/12/12 08:48:48;;;;;;;43.47;21.58;;;3.40;99.90;;;;;;4976472;28;20237;-71
2020/12/12 08:51:22;;;;;;;42.25;20.48;;;3.40;99.90;;;;;;4974589;28;20228;-71
2020/12/12 08:53:48;;;;;;;35.00;18.02;;;3.40;99.90;;;;;;4968286;28;20212;-71
2020/12/12 08:56:15;;;;;;;40.60;18.75;;;3.40;99.90;;;;;;4973145;28;20209;-69
2020/12/12 08:58:48;;;;;;;40.67;20.80;;;3.40;99.90;;;;;;4972168;28;20200;-69
2020/12/12 09:01:30;;;;;;;38.97;20.80;;;3.40;99.90;;;;;;4973175;28;20313;-69
2020/12/12 09:03:58;;;;;;;34.58;20.40;;;3.40;99.90;;;;;;4965540;28;20255;-69
2020/12/12 09:06:25;;;;;;;38.78;20.00;;;3.40;99.90;;;;;;4973050;28;20200;-70
2020/12/12 09:09:10;;;;;;;36.28;17.45;;;3.50;99.90;;;;;;4972696;28;20287;-71
2020/12/12 09:11:37;;;;;;;40.15;20.65;;;3.50;99.90;;;;;;4973021;28;20235;-71
2020/12/12 09:14:05;;;;;;;40.47;22.58;;;3.50;99.90;;;;;;4972795;28;20205;-71
2020/12/12 09:16:31;;;;;;;36.55;20.23;;;3.50;99.90;;;;;;4972290;28;20243;-70
2020/12/12 09:18:57;;;;;;;35.90;21.02;;;3.50;99.90;;;;;;4972916;28;20208;-71
2020/12/12 09:21:24;;;;;;;36.70;19.67;;;3.50;99.90;;;;;;4972959;28;20216;-72
2020/12/12 09:23:50;;;;;;;30.95;16.13;;;3.60;99.90;;;;;;4972505;28;20204;-70
2020/12/12 09:26:19;;;;;;;32.38;18.38;;;3.60;99.90;;;;;;4969808;28;20204;-71
2020/12/12 09:28:45;;;;;;;36.58;20.80;;;3.60;99.90;;;;;;4972168;28;20573;-71
2020/12/12 09:31:14;;;;;;;44.03;21.50;;;3.70;99.90;;;;;;4973047;28;20225;-72
2020/12/12 09:33:41;;;;;;;36.88;18.40;;;3.60;99.90;;;;;;4972620;28;20235;-71
2020/12/12 09:36:07;;;;;;;36.60;18.85;;;3.60;99.90;;;;;;4973138;28;20200;-71
2020/12/12 09:38:33;;;;;;;30.38;18.30;;;3.60;99.90;;;;;;4971525;28;20248;-71
2020/12/12 09:40:59;;;;;;;35.67;20.63;;;3.60;99.90;;;;;;4972017;28;20623;-71
2020/12/12 09:43:25;;;;;;;38.83;21.40;;;3.70;99.90;;;;;;4972968;28;20220;-71
2020/12/12 09:45:52;;;;;;;35.80;19.08;;;3.70;99.90;;;;;;4972893;28;20205;-71
2020/12/12 09:48:19;;;;;;;43.30;20.98;;;3.70;99.90;;;;;;4972058;28;20221;-72
2020/12/12 09:50:46;;;;;;;35.97;19.13;;;3.70;99.90;;;;;;4972643;28;20236;-72
2020/12/12 09:53:12;;;;;;;34.97;18.15;;;3.70;99.90;;;;;;4976652;28;20216;-72
2020/12/12 09:55:40;;;;;;;41.35;21.40;;;3.70;99.90;;;;;;4975897;28;20207;-71
2020/12/12 09:58:07;;;;;;;42.03;20.48;;;3.70;99.90;;;;;;4976905;28;20204;-72
2020/12/12 10:00:34;;;;;;;38.95;20.55;;;3.70;99.90;;;;;;4976798;28;20692;-70
2020/12/12 10:03:00;;;;;;;44.15;20.48;;;3.80;99.90;;;;;;4976045;28;20263;-70
2020/12/12 10:05:27;;;;;;;39.33;19.02;;;3.70;99.90;;;;;;4976544;28;20236;-71
2020/12/12 10:07:55;;;;;;;44.42;22.08;;;3.80;99.90;;;;;;4976132;28;20560;-73
2020/12/12 10:10:22;;;;;;;30.38;16.10;;;3.80;99.90;;;;;;4979666;28;20628;-70
2020/12/12 10:12:48;;;;;;;40.53;21.17;;;3.80;99.90;;;;;;4978717;28;20631;-71
2020/12/12 10:15:16;;;;;;;32.65;18.02;;;3.80;99.90;;;;;;4976079;28;20216;-71
2020/12/12 10:17:42;;;;;;;40.45;20.65;;;3.80;99.90;;;;;;4975298;28;20220;-71
2020/12/12 10:20:08;;;;;;;42.10;22.45;;;3.80;99.90;;;;;;4975874;28;20673;-71
2020/12/12 10:22:35;;;;;;;43.72;21.42;;;3.80;99.90;;;;;;4975943;28;20212;-72
2020/12/12 10:25:01;;;;;;;41.03;20.40;;;3.80;99.90;;;;;;4975389;28;20208;-71
2020/12/12 10:27:27;;;;;;;40.42;20.98;;;3.80;99.90;;;;;;4975051;28;20251;-72
2020/12/12 10:29:53;;;;;;;30.40;17.48;;;3.80;99.90;;;;;;4975786;28;20216;-74
2020/12/12 10:32:19;;;;;;;44.33;22.38;;;3.80;99.90;;;;;;4975647;28;20224;-71
2020/12/12 10:34:46;;;;;;;38.15;21.52;;;3.80;99.90;;;;;;4971169;28;20209;-73
2020/12/12 10:37:12;;;;;;;48.00;21.02;;;3.90;99.90;;;;;;4974507;28;20553;-70
2020/12/12 10:39:43;;;;;;;33.17;16.73;;;3.90;99.90;;;;;;4977181;28;20223;-69
2020/12/12 10:42:09;;;;;;;44.58;21.85;;;3.90;99.90;;;;;;4975216;28;20629;-70
2020/12/12 10:44:35;;;;;;;38.20;19.55;;;3.90;99.90;;;;;;4975271;28;20208;-70
2020/12/12 10:47:01;;;;;;;36.28;21.58;;;3.90;99.90;;;;;;4973534;28;20212;-70
2020/12/12 10:49:27;;;;;;;36.60;21.90;;;3.80;99.90;;;;;;4974184;28;20285;-70
2020/12/12 10:51:54;;;;;;;43.05;21.40;;;3.90;99.90;;;;;;4975004;28;20720;-70
2020/12/12 10:54:20;;;;;;;40.72;22.80;;;3.90;99.90;;;;;;4974572;28;20325;-70
2020/12/12 10:56:47;;;;;;;41.70;21.35;;;3.90;99.90;;;;;;4974545;28;20215;-70
2020/12/12 10:59:14;;;;;;;41.63;21.48;;;3.90;99.90;;;;;;4975011;28;20205;-69
2020/12/12 11:01:40;;;;;;;37.38;19.92;;;3.90;99.90;;;;;;4975278;28;20240;-70
2020/12/12 11:04:06;;;;;;;39.00;22.52;;;3.90;99.90;;;;;;4974288;28;20208;-70
2020/12/12 11:06:33;;;;;;;37.63;19.27;;;4.00;99.90;;;;;;4975056;28;20583;-70
2020/12/12 11:08:59;;;;;;;31.73;18.17;;;4.00;99.90;;;;;;4974836;28;20228;-70
2020/12/12 11:11:26;;;;;;;38.75;21.95;;;4.00;99.90;;;;;;4974969;28;20259;-69
2020/12/12 11:13:52;;;;;;;34.85;20.55;;;4.00;99.90;;;;;;4975036;28;20271;-70
2020/12/12 11:16:19;;;;;;;40.13;21.20;;;4.00;99.90;;;;;;4974274;28;20302;-70
2020/12/12 11:18:48;;;;;;;37.38;19.25;;;4.00;99.90;;;;;;4974481;28;20216;-71
2020/12/12 11:21:18;;;;;;;38.60;21.60;;;4.10;99.90;;;;;;4974875;28;20280;-70
2020/12/12 11:23:44;;;;;;;36.90;21.60;;;4.10;99.90;;;;;;4974582;28;20263;-69
2020/12/12 11:26:11;;;;;;;33.47;18.52;;;4.10;99.90;;;;;;4974082;28;20263;-69
2020/12/12 11:28:38;;;;;;;36.38;20.10;;;4.10;99.90;;;;;;4974577;28;20235;-70
2020/12/12 11:31:04;;;;;;;38.08;21.75;;;4.10;99.90;;;;;;4973781;28;20247;-70
2020/12/12 11:33:31;;;;;;;42.53;22.50;;;4.10;99.90;;;;;;4973780;28;20509;-69
2020/12/12 11:36:08;;;;;;;39.70;21.00;;;4.10;99.90;;;;;;4974352;28;20299;-69
2020/12/12 11:38:40;;;;;;;41.75;20.73;;;4.20;99.90;;;;;;4974468;28;20288;-70
2020/12/12 11:41:19;;;;;;;38.80;19.95;;;4.20;99.90;;;;;;4974312;28;20268;-70
2020/12/12 11:44:00;;;;;;;35.05;20.77;;;4.20;99.90;;;;;;4974476;28;20222;-70
2020/12/12 11:46:29;;;;;;;43.88;20.45;;;4.20;99.90;;;;;;4974203;28;20196;-69
2020/12/12 11:48:57;;;;;;;36.47;20.55;;;4.20;99.90;;;;;;4974386;28;20243;-69
2020/12/12 11:51:23;;;;;;;40.08;20.45;;;4.20;99.90;;;;;;4974905;28;20228;-69
2020/12/12 11:53:49;;;;;;;33.20;19.77;;;4.20;99.90;;;;;;4974040;28;20617;-69
2020/12/12 11:56:20;;;;;;;36.67;20.08;;;4.20;99.90;;;;;;4973429;28;20212;-69
2020/12/12 11:58:46;;;;;;;39.10;19.42;;;4.20;99.90;;;;;;4973925;28;20263;-69
2020/12/12 12:01:17;;;;;;;36.15;18.60;;;4.20;99.90;;;;;;4973768;28;20371;-69
2020/12/12 12:03:44;;;;;;;34.55;19.23;;;4.20;99.90;;;;;;4972429;28;20242;-69
2020/12/12 12:06:10;;;;;;;39.65;19.85;;;4.20;99.90;;;;;;4973525;28;20201;-69
2020/12/12 12:08:42;;;;;;;31.15;17.85;;;4.20;99.90;;;;;;4973710;28;20589;-69
2020/12/12 12:11:17;;;;;;;35.70;19.95;;;4.20;99.90;;;;;;4973588;28;20241;-69
2020/12/12 12:13:43;;;;;;;38.70;19.65;;;4.20;99.90;;;;;;4973481;28;20594;-69
2020/12/12 12:16:10;;;;;;;27.38;18.27;;;4.20;99.90;;;;;;4973105;28;20200;-71
2020/12/12 12:18:36;;;;;;;31.35;18.98;;;4.20;99.90;;;;;;4973179;28;20196;-71
2020/12/12 12:21:03;;;;;;;26.17;16.65;;;4.20;99.90;;;;;;4974100;28;20323;-71
2020/12/12 12:23:29;;;;;;;36.47;20.23;;;4.20;99.90;;;;;;4973492;28;20231;-71
2020/12/12 12:25:56;;;;;;;32.17;18.52;;;4.20;99.90;;;;;;4972576;28;20212;-71
2020/12/12 12:28:23;;;;;;;31.23;18.58;;;4.20;99.90;;;;;;4973647;28;20592;-71
2020/12/12 12:30:49;;;;;;;35.22;22.52;;;4.30;99.90;;;;;;4973453;28;20610;-71
2020/12/12 12:33:15;;;;;;;40.80;20.75;;;4.30;99.90;;;;;;4973009;28;20217;-71
2020/12/12 12:35:41;;;;;;;30.58;16.58;;;4.30;99.90;;;;;;4972561;28;20573;-71
2020/12/12 12:38:08;;;;;;;40.85;19.77;;;4.30;99.90;;;;;;4972774;28;20212;-72
2020/12/12 12:40:35;;;;;;;25.88;14.27;;;4.40;99.90;;;;;;4973395;28;20704;-71
2020/12/12 12:43:02;;;;;;;37.63;20.25;;;4.30;99.90;;;;;;4973466;28;20286;-73
2020/12/12 12:45:28;;;;;;;36.47;19.92;;;4.30;99.90;;;;;;4973142;28;20197;-72
2020/12/12 12:47:54;;;;;;;33.20;17.50;;;4.30;99.90;;;;;;4973327;28;20228;-73
2020/12/12 12:50:33;;;;;;;19.33;12.88;;;4.40;99.90;;;;;;4973993;28;20255;-73
2020/12/12 12:52:59;;;;;;;34.10;19.73;;;4.40;99.90;;;;;;4972843;28;20300;-73
2020/12/12 12:55:26;;;;;;;34.67;18.60;;;4.40;99.90;;;;;;4972266;28;20204;-72
2020/12/12 12:57:53;;;;;;;34.58;17.73;;;4.40;99.90;;;;;;4973653;28;20283;-72
2020/12/12 13:00:19;;;;;;;37.17;19.85;;;4.40;99.90;;;;;;4973389;28;20208;-72
2020/12/12 13:02:45;;;;;;;33.55;17.77;;;4.40;99.90;;;;;;4972997;28;20912;-72
2020/12/12 13:05:11;;;;;;;37.25;19.40;;;4.40;99.90;;;;;;4972588;28;20747;-72
2020/12/12 13:07:37;;;;;;;34.35;19.50;;;4.40;99.90;;;;;;4972703;28;20229;-71
2020/12/12 13:10:04;;;;;;;34.20;20.23;;;4.40;99.90;;;;;;4972848;28;20529;-71
2020/12/12 13:12:31;;;;;;;35.25;19.38;;;4.40;99.90;;;;;;4973055;28;20307;-71
2020/12/12 13:14:57;;;;;;;34.80;18.45;;;4.40;99.90;;;;;;4972191;28;20205;-71
2020/12/12 13:17:23;;;;;;;31.42;19.23;;;4.40;99.90;;;;;;4973282;28;20216;-72
2020/12/12 13:19:52;;;;;;;33.33;20.20;;;4.40;99.90;;;;;;4973303;28;20220;-71
2020/12/12 13:22:19;;;;;;;32.83;19.92;;;4.40;99.90;;;;;;4973222;28;20229;-72
2020/12/12 13:24:45;;;;;;;32.00;19.25;;;4.40;99.90;;;;;;4972263;28;20304;-71
2020/12/12 13:27:11;;;;;;;36.08;17.88;;;4.40;99.90;;;;;;4974225;28;20204;-71
2020/12/12 13:32:31;;;;;;;40.75;19.98;;;4.40;99.90;;;;;;4952852;28;20212;-71
2020/12/12 13:34:57;;;;;;;30.08;15.85;;;4.40;99.90;;;;;;4976114;28;20303;-72
2020/12/12 13:37:23;;;;;;;33.50;17.50;;;4.40;99.90;;;;;;4976998;28;20263;-72
2020/12/12 13:39:50;;;;;;;25.73;15.50;;;4.40;99.90;;;;;;4976821;28;20263;-72
2020/12/12 13:42:17;;;;;;;36.83;20.00;;;4.40;99.90;;;;;;4975355;28;20228;-72
2020/12/12 13:44:45;;;;;;;31.13;16.88;;;4.40;99.90;;;;;;4976622;28;20255;-72
2020/12/12 13:47:12;;;;;;;34.17;19.30;;;4.40;99.90;;;;;;4977318;28;20692;-72
2020/12/12 13:49:38;;;;;;;36.40;17.17;;;4.40;99.90;;;;;;4975709;28;20204;-72
2020/12/12 13:52:05;;;;;;;34.13;19.88;;;4.40;99.90;;;;;;4975490;28;20228;-72
2020/12/12 13:54:31;;;;;;;34.03;18.10;;;4.30;99.90;;;;;;4976735;28;20282;-72
2020/12/12 13:56:57;;;;;;;34.60;18.85;;;4.30;99.90;;;;;;4975975;28;20204;-72
2020/12/12 13:59:23;;;;;;;30.83;17.40;;;4.30;99.90;;;;;;4976382;28;20724;-72
2020/12/12 14:01:51;;;;;;;40.92;19.95;;;4.30;99.90;;;;;;4975424;28;20646;-72
2020/12/12 14:04:17;;;;;;;39.03;20.48;;;4.30;99.90;;;;;;4975988;28;20213;-72
2020/12/12 14:06:47;;;;;;;28.25;17.90;;;4.30;99.90;;;;;;4976049;28;20279;-72
2020/12/12 14:09:31;;;;;;;28.52;15.35;;;4.30;99.90;;;;;;4976391;28;20239;-72
2020/12/12 14:23:00;;;;;;;34.25;17.65;;;4.30;99.90;;;;;;4974071;28;20208;-72
2020/12/12 14:25:28;;;;;;;33.50;17.98;;;4.30;99.90;;;;;;4974244;28;20700;-71
2020/12/12 14:30:40;;;;;;;30.38;16.50;;;4.30;99.90;;;;;;4975322;28;20231;-72
2020/12/12 14:33:07;;;;;;;24.13;14.65;;;4.20;99.90;;;;;;4975020;28;20230;-72
2020/12/12 14:35:34;;;;;;;36.50;18.92;;;4.20;99.90;;;;;;4975391;28;20209;-71
2020/12/12 14:38:00;;;;;;;34.67;18.65;;;4.20;99.90;;;;;;4975101;28;20205;-71
2020/12/12 14:40:26;;;;;;;34.70;17.10;;;4.20;99.90;;;;;;4955981;28;20228;-70
2020/12/12 14:42:52;;;;;;;32.28;18.50;;;4.20;99.90;;;;;;4975133;28;20645;-73
2020/12/12 14:45:18;;;;;;;30.38;18.75;;;4.20;99.90;;;;;;4975647;28;20278;-71
2020/12/12 14:47:44;;;;;;;30.58;16.52;;;4.20;99.90;;;;;;4974943;28;20287;-70
2020/12/12 14:50:12;;;;;;;28.23;18.10;;;4.20;99.90;;;;;;4975219;28;20212;-73
2020/12/12 14:52:39;;;;;;;32.83;19.02;;;4.20;99.90;;;;;;4975088;28;20572;-71
2020/12/12 14:55:05;;;;;;;22.35;13.20;;;4.20;99.90;;;;;;4974343;28;20216;-71
2020/12/12 14:57:32;;;;;;;24.92;15.48;;;4.20;99.90;;;;;;4975741;28;20553;-71
2020/12/12 14:59:58;;;;;;;26.38;14.55;;;4.20;99.90;;;;;;4975438;28;20216;-72
2020/12/12 15:02:24;;;;;;;28.45;16.05;;;4.20;99.90;;;;;;4974421;28;20243;-72
2020/12/12 15:04:50;;;;;;;27.27;15.77;;;4.20;99.90;;;;;;4974911;28;20216;-73
2020/12/12 15:07:17;;;;;;;18.75;12.77;;;4.20;99.90;;;;;;4974486;28;20220;-72
2020/12/12 15:09:44;;;;;;;18.65;12.85;;;4.10;99.90;;;;;;4975300;28;20367;-72
2020/12/12 15:12:10;;;;;;;25.38;17.63;;;4.10;99.90;;;;;;4974202;28;20225;-73
2020/12/12 15:14:36;;;;;;;23.85;14.73;;;4.10;99.90;;;;;;4974897;28;20294;-73
2020/12/12 15:17:02;;;;;;;24.92;15.48;;;4.20;99.90;;;;;;4974450;28;20251;-72
2020/12/12 15:19:28;;;;;;;25.17;14.20;;;4.20;99.90;;;;;;4974341;28;20201;-71
2020/12/12 15:21:54;;;;;;;18.58;13.70;;;4.10;99.90;;;;;;4972710;28;20224;-73
2020/12/12 15:24:21;;;;;;;30.55;17.52;;;4.10;99.90;;;;;;4963364;28;20201;-73
2020/12/12 15:26:47;;;;;;;26.98;17.90;;;4.10;99.90;;;;;;4969008;28;20204;-73
2020/12/12 15:29:13;;;;;;;32.85;15.18;;;4.10;99.90;;;;;;4974229;28;20279;-73
2020/12/12 15:31:40;;;;;;;30.83;19.17;;;4.10;99.90;;;;;;4974007;28;20233;-73
2020/12/12 15:34:06;;;;;;;27.98;16.63;;;4.10;99.90;;;;;;4972180;28;20260;-70
2020/12/12 15:36:32;;;;;;;32.75;18.05;;;4.20;99.90;;;;;;4973744;28;20628;-70
2020/12/12 15:38:59;;;;;;;28.73;17.25;;;4.10;99.90;;;;;;4974095;28;20215;-69
2020/12/12 15:41:26;;;;;;;32.92;18.20;;;4.20;99.90;;;;;;4972354;28;20741;-70
2020/12/12 15:43:52;;;;;;;26.90;14.63;;;4.20;99.90;;;;;;4973896;28;20232;-70
2020/12/12 15:46:24;;;;;;;29.10;14.25;;;4.20;99.90;;;;;;4973929;28;20508;-70
2020/12/12 15:48:50;;;;;;;24.13;15.48;;;4.20;99.90;;;;;;4972931;28;20227;-71
2020/12/12 15:51:16;;;;;;;29.48;15.70;;;4.20;99.90;;;;;;4973913;28;20232;-70
2020/12/12 15:53:42;;;;;;;18.38;13.32;;;4.20;99.90;;;;;;4973926;28;20212;-71
2020/12/12 15:56:09;;;;;;;30.13;17.38;;;4.20;99.90;;;;;;4973155;28;20268;-70
2020/12/12 15:58:36;;;;;;;30.52;17.48;;;4.20;99.90;;;;;;4970613;28;20272;-72
2020/12/12 16:01:02;;;;;;;25.60;16.75;;;4.10;99.90;;;;;;4968634;28;20240;-70
2020/12/12 16:03:28;;;;;;;26.77;16.40;;;4.20;99.90;;;;;;4971389;28;20209;-71
2020/12/12 16:05:55;;;;;;;32.92;17.38;;;4.10;99.90;;;;;;4972720;28;20208;-70
2020/12/12 16:08:21;;;;;;;23.85;13.50;;;4.10;99.90;;;;;;4973744;28;20257;-70
2020/12/12 16:10:47;;;;;;;30.80;17.35;;;4.20;99.90;;;;;;4972034;28;20681;-70
2020/12/12 16:13:13;;;;;;;30.30;17.50;;;4.20;99.90;;;;;;4973437;28;20220;-71
2020/12/12 16:15:40;;;;;;;25.83;17.83;;;4.20;99.90;;;;;;4972893;28;20247;-70
2020/12/12 16:18:09;;;;;;;25.60;15.32;;;4.20;99.90;;;;;;4973952;28;20263;-70
2020/12/12 16:20:35;;;;;;;26.65;16.23;;;4.20;99.90;;;;;;4973306;28;20220;-70
2020/12/12 16:23:01;;;;;;;29.25;17.35;;;4.20;99.90;;;;;;4973425;28;20255;-69
2020/12/12 16:25:27;;;;;;;32.40;19.10;;;4.20;99.90;;;;;;4972357;28;20295;-72
2020/12/12 16:27:53;;;;;;;25.73;13.27;;;4.10;99.90;;;;;;4973534;28;20224;-73
2020/12/12 16:30:22;;;;;;;26.25;17.20;;;4.20;99.90;;;;;;4972593;28;20204;-71
2020/12/12 16:32:53;;;;;;;20.48;11.88;;;4.20;99.90;;;;;;4972520;28;20212;-72
2020/12/12 16:35:20;;;;;;;27.40;17.38;;;4.10;99.90;;;;;;4972465;28;20205;-70
2020/12/12 16:37:49;;;;;;;30.92;18.40;;;4.10;99.90;;;;;;4973280;28;20216;-70
2020/12/12 16:40:15;;;;;;;35.35;18.83;;;4.20;99.90;;;;;;4969323;28;20256;-69
2020/12/12 16:42:42;;;;;;;31.90;17.48;;;4.20;99.90;;;;;;4971664;28;20259;-70
2020/12/12 16:45:08;;;;;;;28.83;16.73;;;4.20;99.90;;;;;;4965411;28;20200;-70
2020/12/12 16:47:34;;;;;;;32.80;18.48;;;4.20;99.90;;;;;;4969863;28;20216;-71
2020/12/12 16:50:01;;;;;;;29.02;18.17;;;4.20;99.90;;;;;;4970803;28;20208;-71
2020/12/12 16:52:28;;;;;;;30.35;17.83;;;4.20;99.90;;;;;;4968948;28;20227;-70
2020/12/12 16:54:54;;;;;;;34.15;18.90;;;4.20;99.90;;;;;;4971222;28;20213;-71
2020/12/12 16:57:20;;;;;;;29.02;18.00;;;4.20;99.90;;;;;;4971270;28;20631;-71
2020/12/12 16:59:47;;;;;;;30.60;19.10;;;4.20;99.90;;;;;;4972218;28;20263;-70
2020/12/12 17:02:13;;;;;;;31.27;19.08;;;4.20;99.90;;;;;;4972638;28;20283;-71
2020/12/12 17:04:39;;;;;;;38.13;19.83;;;4.20;99.90;;;;;;4975947;28;20263;-72
2020/12/12 17:07:06;;;;;;;32.38;20.13;;;4.20;99.90;;;;;;4975631;28;20287;-71
2020/12/12 17:09:32;;;;;;;37.03;19.90;;;4.20;99.90;;;;;;4976488;28;20274;-71
2020/12/12 17:12:01;;;;;;;34.53;19.95;;;4.20;99.90;;;;;;4974959;28;20795;-70
2020/12/12 17:14:27;;;;;;;37.72;20.65;;;4.20;99.90;;;;;;4975593;28;20200;-71
2020/12/12 17:16:53;;;;;;;35.25;20.15;;;4.20;99.90;;;;;;4976334;28;20565;-71
2020/12/12 17:19:20;;;;;;;33.40;20.70;;;4.20;99.90;;;;;;4975885;28;20223;-70
2020/12/12 17:21:46;;;;;;;40.20;22.50;;;4.20;99.90;;;;;;4974446;28;20763;-71
2020/12/12 17:24:15;;;;;;;36.97;22.67;;;4.20;99.90;;;;;;4976201;28;20204;-71
2020/12/12 17:26:42;;;;;;;36.83;20.90;;;4.10;99.90;;;;;;4968017;28;20228;-71
2020/12/12 17:29:09;;;;;;;37.40;22.65;;;4.20;99.90;;;;;;4976782;28;20224;-71
2020/12/12 17:31:39;;;;;;;36.88;23.40;;;4.20;99.90;;;;;;4975023;28;20596;-70
2020/12/12 17:34:06;;;;;;;33.80;20.75;;;4.20;99.90;;;;;;4975556;28;20322;-71
2020/12/12 17:36:32;;;;;;;32.95;20.00;;;4.10;99.90;;;;;;4976039;28;20688;-70
2020/12/12 17:38:59;;;;;;;32.00;19.67;;;4.10;99.90;;;;;;4975491;28;20204;-71
2020/12/12 17:41:25;;;;;;;31.10;18.50;;;4.10;99.90;;;;;;4974967;28;20650;-72
2020/12/12 17:43:52;;;;;;;36.70;22.55;;;4.00;99.90;;;;;;4975201;28;20271;-72
2020/12/12 17:46:18;;;;;;;41.35;22.00;;;4.00;99.90;;;;;;4976473;28;20212;-72
2020/12/12 17:48:45;;;;;;;31.75;21.67;;;4.00;99.90;;;;;;4975489;28;20229;-72
2020/12/12 17:51:13;;;;;;;38.15;20.42;;;4.00;99.90;;;;;;4974943;28;20271;-72
2020/12/12 17:53:40;;;;;;;41.53;22.73;;;4.00;99.90;;;;;;4975363;28;20547;-71